createdAt,value
2023-03-05T00:01:26.254Z,100715.13
2023-03-05T00:03:55.894Z,100710.25
2023-03-05T00:06:26.508Z,100717.25
2023-03-05T00:08:55.026Z,100712.84
2023-03-05T00:11:22.989Z,100715.34
2023-03-05T00:13:53.516Z,100706.69
2023-03-05T00:16:22.376Z,100713.75
2023-03-05T00:18:49.909Z,100711.16
2023-03-05T00:21:26.176Z,100705.41
2023-03-05T00:23:54.355Z,100705.53
2023-03-05T00:26:24.671Z,100705.31
2023-03-05T00:28:52.567Z,100709.03
2023-03-05T00:31:22.105Z,100700.09
2023-03-05T00:33:54.062Z,100701.72
2023-03-05T00:36:21.633Z,100707.06
2023-03-05T00:38:49.976Z,100703.53
2023-03-05T00:41:17.508Z,100708.97
2023-03-05T00:43:44.890Z,100705.41
2023-03-05T00:46:12.284Z,100698.50
2023-03-05T00:48:39.611Z,100709.25
2023-03-05T00:51:07.128Z,100704.13
2023-03-05T00:53:34.651Z,100704.88
2023-03-05T00:56:01.975Z,100704.66
2023-03-05T00:58:29.864Z,100707.28
2023-03-05T01:00:59.544Z,100705.00
2023-03-05T01:03:27.327Z,100708.59
2023-03-05T01:05:56.346Z,100706.78
2023-03-05T01:08:24.363Z,100700.88
2023-03-05T01:10:52.217Z,100698.09
2023-03-05T01:13:20.164Z,100703.91
2023-03-05T01:15:48.704Z,100700.66
2023-03-05T01:18:17.280Z,100699.06
2023-03-05T01:20:44.666Z,100694.09
2023-03-05T01:23:12.274Z,100697.78
2023-03-05T01:25:41.338Z,100694.81
2023-03-05T01:28:09.250Z,100696.28
2023-03-05T01:30:36.848Z,100691.66
2023-03-05T01:33:04.196Z,100690.19
2023-03-05T01:35:31.661Z,100688.78
2023-03-05T01:37:58.979Z,100684.50
2023-03-05T01:40:29.654Z,100688.72
2023-03-05T01:43:01.090Z,100681.91
2023-03-05T01:45:32.633Z,100674.97
2023-03-05T01:48:00.713Z,100666.66
2023-03-05T01:50:29.237Z,100672.81
2023-03-05T01:53:03.928Z,100673.22
2023-03-05T01:55:33.997Z,100673.38
2023-03-05T01:58:12.835Z,100674.81
2023-03-05T02:00:46.990Z,100670.84
2023-03-05T02:03:14.484Z,100671.56
2023-03-05T02:05:46.107Z,100665.88
2023-03-05T02:08:16.600Z,100668.38
2023-03-05T02:10:48.065Z,100663.75
2023-03-05T02:13:21.374Z,100670.31
2023-03-05T02:15:49.899Z,100664.00
2023-03-05T02:18:18.798Z,100667.03
2023-03-05T02:21:12.336Z,100668.00
2023-03-05T02:23:40.197Z,100658.75
2023-03-05T02:26:10.871Z,100658.34
2023-03-05T02:28:47.392Z,100658.81
2023-03-05T02:31:23.068Z,100654.47
2023-03-05T02:33:51.307Z,100652.66
2023-03-05T02:36:20.297Z,100653.91
2023-03-05T02:38:47.848Z,100647.41
2023-03-05T02:41:15.739Z,100643.47
2023-03-05T02:43:43.493Z,100647.78
2023-03-05T02:46:11.486Z,100643.66
2023-03-05T02:48:39.978Z,100646.38
2023-03-05T02:51:09.381Z,100645.78
2023-03-05T02:53:36.676Z,100632.44
2023-03-05T02:56:04.581Z,100634.25
2023-03-05T02:58:34.524Z,100637.81
2023-03-05T03:01:03.998Z,100626.19
2023-03-05T03:03:31.491Z,100627.22
2023-03-05T03:05:59.713Z,100626.38
2023-03-05T03:08:27.187Z,100628.47
2023-03-05T03:10:56.430Z,100632.75
2023-03-05T03:13:25.197Z,100624.47
2023-03-05T03:16:02.438Z,100627.91
2023-03-05T03:18:29.801Z,100629.31
2023-03-05T03:20:57.118Z,100622.63
2023-03-05T03:23:24.433Z,100629.88
2023-03-05T03:25:52.051Z,100630.38
2023-03-05T03:28:19.348Z,100622.50
2023-03-05T03:30:46.705Z,100628.78
2023-03-05T03:33:14.090Z,100627.75
2023-03-05T03:35:45.306Z,100619.13
2023-03-05T03:38:13.871Z,100619.06
2023-03-05T03:40:42.164Z,100612.88
2023-03-05T03:43:09.476Z,100616.06
2023-03-05T03:45:40.894Z,100612.81
2023-03-05T03:48:08.181Z,100614.41
2023-03-05T03:50:40.677Z,100616.53
2023-03-05T03:53:09.093Z,100613.28
2023-03-05T03:55:36.453Z,100610.09
2023-03-05T03:58:04.161Z,100602.28
2023-03-05T04:00:31.705Z,100610.66
2023-03-05T04:02:59.021Z,100607.97
2023-03-05T04:05:26.445Z,100611.41
2023-03-05T04:07:53.782Z,100608.84
2023-03-05T04:10:21.129Z,100613.38
2023-03-05T04:12:48.402Z,100615.09
2023-03-05T04:15:15.808Z,100609.91
2023-03-05T04:17:43.217Z,100607.16
2023-03-05T04:20:11.192Z,100612.06
2023-03-05T04:22:38.468Z,100608.31
2023-03-05T04:25:06.616Z,100606.41
2023-03-05T04:27:36.100Z,100602.91
2023-03-05T04:30:04.454Z,100594.88
2023-03-05T04:32:32.348Z,100596.63
2023-03-05T04:34:59.683Z,100592.50
2023-03-05T04:37:27.343Z,100594.44
2023-03-05T04:39:54.745Z,100597.13
2023-03-05T04:42:22.067Z,100596.06
2023-03-05T04:44:50.211Z,100589.78
2023-03-05T04:47:18.923Z,100592.09
2023-03-05T04:49:46.301Z,100594.50
2023-03-05T04:52:14.331Z,100592.69
2023-03-05T04:54:44.036Z,100585.38
2023-03-05T04:57:11.430Z,100587.16
2023-03-05T04:59:38.850Z,100588.97
2023-03-05T05:02:06.470Z,100592.81
2023-03-05T05:04:35.592Z,100597.19
2023-03-05T05:07:05.754Z,100590.06
2023-03-05T05:09:33.408Z,100596.63
2023-03-05T05:12:00.659Z,100593.16
2023-03-05T05:14:28.026Z,100599.72
2023-03-05T05:16:55.307Z,100600.13
2023-03-05T05:19:22.972Z,100597.38
2023-03-05T05:21:50.276Z,100598.91
2023-03-05T05:24:17.614Z,100600.34
2023-03-05T05:26:44.925Z,100598.34
2023-03-05T05:29:12.313Z,100606.16
2023-03-05T05:31:39.956Z,100606.44
2023-03-05T05:34:07.336Z,100605.28
2023-03-05T05:36:34.630Z,100605.16
2023-03-05T05:39:02.032Z,100608.78
2023-03-05T05:41:29.524Z,100598.91
2023-03-05T05:43:57.054Z,100601.66
2023-03-05T05:46:25.813Z,100599.34
2023-03-05T05:48:53.180Z,100596.44
2023-03-05T05:51:22.171Z,100600.63
2023-03-05T05:53:50.124Z,100605.22
2023-03-05T05:56:20.436Z,100599.72
2023-03-05T05:58:48.437Z,100606.13
2023-03-05T06:01:28.436Z,100607.81
2023-03-05T06:03:56.477Z,100614.41
2023-03-05T06:06:26.283Z,100612.75
2023-03-05T06:08:54.365Z,100618.09
2023-03-05T06:11:22.363Z,100622.97
2023-03-05T06:13:50.211Z,100627.63
2023-03-05T06:16:24.008Z,100627.91
2023-03-05T06:18:52.629Z,100629.28
2023-03-05T06:21:21.209Z,100623.66
2023-03-05T06:23:50.856Z,100621.34
2023-03-05T06:26:20.929Z,100623.16
2023-03-05T06:28:48.359Z,100626.97
2023-03-05T06:31:26.099Z,100627.31
2023-03-05T06:34:03.004Z,100625.09
2023-03-05T06:36:30.576Z,100621.28
2023-03-05T06:38:59.127Z,100629.66
2023-03-05T06:41:29.704Z,100625.66
2023-03-05T06:43:58.999Z,100631.50
2023-03-05T06:46:29.697Z,100639.28
2023-03-05T06:48:59.644Z,100637.34
2023-03-05T06:51:35.449Z,100632.00
2023-03-05T06:54:08.764Z,100633.78
2023-03-05T06:56:37.361Z,100633.56
2023-03-05T06:59:05.590Z,100628.44
2023-03-05T07:01:33.429Z,100644.13
2023-03-05T07:04:03.009Z,100631.19
2023-03-05T07:06:35.659Z,100637.56
2023-03-05T07:09:04.175Z,100635.16
2023-03-05T07:11:31.660Z,100635.34
2023-03-05T07:13:59.953Z,100632.94
2023-03-05T07:16:30.462Z,100635.66
2023-03-05T07:18:59.465Z,100624.69
2023-03-05T07:21:28.767Z,100625.19
2023-03-05T07:23:59.748Z,100629.44
2023-03-05T07:26:27.738Z,100633.72
2023-03-05T07:28:59.508Z,100634.53
2023-03-05T07:31:30.874Z,100635.66
2023-03-05T07:34:00.471Z,100627.38
2023-03-05T07:36:28.006Z,100617.97
2023-03-05T07:38:55.417Z,100623.19
2023-03-05T07:41:23.783Z,100632.22
2023-03-05T07:43:53.180Z,100626.56
2023-03-05T07:46:23.761Z,100619.91
2023-03-05T07:48:51.321Z,100617.88
2023-03-05T07:51:20.208Z,100620.00
2023-03-05T07:53:49.602Z,100621.59
2023-03-05T07:56:24.774Z,100618.09
2023-03-05T07:58:55.072Z,100622.38
2023-03-05T08:01:22.620Z,100623.16
2023-03-05T08:03:50.115Z,100616.78
2023-03-05T08:06:17.690Z,100618.94
2023-03-05T08:08:45.030Z,100610.59
2023-03-05T08:11:15.654Z,100606.34
2023-03-05T08:13:44.579Z,100597.91
2023-03-05T08:16:17.647Z,100602.28
2023-03-05T08:18:45.617Z,100596.47
2023-03-05T08:21:33.846Z,100595.81
2023-03-05T08:24:06.883Z,100592.81
2023-03-05T08:26:38.434Z,100588.25
2023-03-05T08:29:07.477Z,100583.09
2023-03-05T08:31:34.966Z,100583.19
2023-03-05T08:34:03.830Z,100590.03
2023-03-05T08:36:31.601Z,100590.66
2023-03-05T08:38:59.717Z,100578.91
2023-03-05T08:41:27.724Z,100582.41
2023-03-05T08:43:55.387Z,100585.50
2023-03-05T08:46:22.694Z,100585.84
2023-03-05T08:48:50.192Z,100583.44
2023-03-05T08:51:22.206Z,100587.16
2023-03-05T08:53:49.646Z,100580.03
2023-03-05T08:56:16.949Z,100586.19
2023-03-05T08:58:46.088Z,100581.06
2023-03-05T09:01:13.961Z,100591.38
2023-03-05T09:03:44.186Z,100588.59
2023-03-05T09:06:14.899Z,100588.03
2023-03-05T09:08:42.324Z,100584.16
2023-03-05T09:11:12.464Z,100578.41
2023-03-05T09:13:40.139Z,100582.59
2023-03-05T09:16:11.672Z,100581.44
2023-03-05T09:18:40.221Z,100579.34
2023-03-05T09:21:09.394Z,100584.94
2023-03-05T09:23:37.845Z,100577.44
2023-03-05T09:26:06.738Z,100582.22
2023-03-05T09:28:34.040Z,100577.38
2023-03-05T09:31:06.381Z,100571.50
2023-03-05T09:33:36.669Z,100566.00
2023-03-05T09:36:05.763Z,100567.59
2023-03-05T09:38:33.136Z,100562.72
2023-03-05T09:41:16.976Z,100567.41
2023-03-05T09:43:56.733Z,100559.31
2023-03-05T09:46:44.991Z,100556.91
2023-03-05T09:49:38.236Z,100557.34
2023-03-05T09:52:22.758Z,100546.66
2023-03-05T09:54:55.361Z,100551.00
2023-03-05T09:57:31.049Z,100549.03
2023-03-05T10:00:07.830Z,100549.03
2023-03-05T10:02:50.446Z,100543.50
2023-03-05T10:05:17.695Z,100540.69
2023-03-05T10:07:55.592Z,100538.31
2023-03-05T10:10:44.577Z,100536.38
2023-03-05T10:13:26.799Z,100530.44
2023-03-05T10:16:16.774Z,100545.06
2023-03-05T10:18:56.969Z,100532.81
2023-03-05T10:21:46.407Z,100531.97
2023-03-05T10:24:37.200Z,100527.31
2023-03-05T10:27:09.165Z,100523.63
2023-03-05T10:30:01.489Z,100528.94
2023-03-05T10:32:28.626Z,100526.44
2023-03-05T10:35:11.147Z,100523.72
2023-03-05T10:37:54.943Z,100523.72
2023-03-05T10:40:32.555Z,100519.97
2023-03-05T10:43:57.201Z,100520.34
2023-03-05T10:46:35.446Z,100517.44
2023-03-05T10:49:23.006Z,100515.84
2023-03-05T10:52:04.087Z,100498.31
2023-03-05T10:54:33.727Z,100501.59
2023-03-05T10:57:05.021Z,100497.34
2023-03-05T10:59:32.633Z,100500.47
2023-03-05T11:02:06.236Z,100494.41
2023-03-05T11:04:39.074Z,100485.50
2023-03-05T11:07:13.458Z,100489.00
2023-03-05T11:09:42.225Z,100482.09
2023-03-05T11:12:19.453Z,100481.31
2023-03-05T11:15:04.752Z,100474.13
2023-03-05T11:18:07.646Z,100477.00
2023-03-05T11:20:36.524Z,100468.94
2023-03-05T11:23:08.927Z,100469.00
2023-03-05T11:25:59.119Z,100460.94
2023-03-05T11:28:39.893Z,100462.69
2023-03-05T11:31:16.332Z,100457.31
2023-03-05T11:34:04.559Z,100450.50
2023-03-05T11:36:37.221Z,100450.97
2023-03-05T11:39:07.603Z,100445.00
2023-03-05T11:41:43.153Z,100438.94
2023-03-05T11:44:17.620Z,100438.09
2023-03-05T11:46:48.661Z,100429.16
2023-03-05T11:49:28.705Z,100421.38
2023-03-05T11:52:31.111Z,100418.75
2023-03-05T11:55:04.505Z,100423.66
2023-03-05T11:57:41.693Z,100415.03
2023-03-05T12:00:15.757Z,100406.16
2023-03-05T12:02:43.823Z,100409.53
2023-03-05T12:05:15.845Z,100403.66
2023-03-05T12:07:47.184Z,100395.31
2023-03-05T12:10:20.345Z,100389.56
2023-03-05T12:13:13.511Z,100387.66
2023-03-05T12:16:05.658Z,100376.25
2023-03-05T12:18:35.828Z,100378.78
2023-03-05T12:21:14.525Z,100365.72
2023-03-05T12:23:54.336Z,100370.75
2023-03-05T12:27:05.971Z,100358.94
2023-03-05T12:29:33.350Z,100350.81
2023-03-05T12:32:01.972Z,100347.28
2023-03-05T12:34:41.825Z,100345.03
2023-03-05T12:37:31.925Z,100334.50
2023-03-05T12:40:00.819Z,100332.59
2023-03-05T12:42:28.076Z,100328.28
2023-03-05T12:45:14.508Z,100319.53
2023-03-05T12:47:46.397Z,100316.81
2023-03-05T12:50:39.950Z,100320.28
2023-03-05T12:53:07.267Z,100310.34
2023-03-05T12:55:35.413Z,100318.53
2023-03-05T12:58:39.833Z,100307.31
2023-03-05T13:01:31.634Z,100309.41
2023-03-05T13:04:10.649Z,100309.13
2023-03-05T13:06:39.357Z,100307.41
2023-03-05T13:09:18.534Z,100301.81
2023-03-05T13:11:50.002Z,100302.09
2023-03-05T13:14:26.413Z,100295.00
2023-03-05T13:16:53.751Z,100293.34
2023-03-05T13:19:21.529Z,100285.69
2023-03-05T13:22:09.712Z,100286.44
2023-03-05T13:24:37.147Z,100280.78
2023-03-05T13:27:20.146Z,100271.63
2023-03-05T13:29:52.616Z,100270.63
2023-03-05T13:32:30.007Z,100277.03
2023-03-05T13:35:00.337Z,100264.41
2023-03-05T13:37:33.039Z,100263.81
2023-03-05T13:40:26.094Z,100269.03
2023-03-05T13:42:53.515Z,100268.19
2023-03-05T13:45:22.619Z,100270.97
2023-03-05T13:48:19.069Z,100257.75
2023-03-05T13:50:46.442Z,100265.84
2023-03-05T13:53:24.750Z,100263.06
2023-03-05T13:55:56.848Z,100258.19
2023-03-05T13:58:44.352Z,100251.91
2023-03-05T14:01:26.868Z,100256.03
2023-03-05T14:04:02.140Z,100255.94
2023-03-05T14:06:31.062Z,100260.88
2023-03-05T14:09:04.618Z,100247.53
2023-03-05T14:11:32.176Z,100238.84
2023-03-05T14:16:55.545Z,100232.88
2023-03-05T14:19:40.813Z,100227.47
2023-03-05T14:22:36.378Z,100227.06
2023-03-05T14:25:05.994Z,100222.94
2023-03-05T14:27:37.272Z,100220.16
2023-03-05T14:30:05.834Z,100215.41
2023-03-05T14:32:36.032Z,100217.75
2023-03-05T14:35:05.871Z,100210.19
2023-03-05T14:37:42.128Z,100200.31
2023-03-05T14:40:12.555Z,100208.38
2023-03-05T14:42:56.010Z,100203.78
2023-03-05T14:45:26.428Z,100203.75
2023-03-05T14:47:55.792Z,100196.13
2023-03-05T14:50:26.759Z,100195.59
2023-03-05T14:53:00.292Z,100195.06
2023-03-05T14:55:31.850Z,100196.69
2023-03-05T14:58:21.888Z,100191.75
2023-03-05T15:00:51.066Z,100186.38
2023-03-05T15:03:20.377Z,100188.22
2023-03-05T15:05:51.810Z,100185.66
2023-03-05T15:08:25.091Z,100186.13
2023-03-05T15:10:53.226Z,100169.69
2023-03-05T15:13:20.750Z,100177.84
2023-03-05T15:15:49.817Z,100171.59
2023-03-05T15:18:22.715Z,100167.00
2023-03-05T15:20:53.021Z,100174.31
2023-03-05T15:23:20.533Z,100168.66
2023-03-05T15:25:47.887Z,100165.16
2023-03-05T15:28:18.385Z,100158.97
2023-03-05T15:30:47.330Z,100160.84
2023-03-05T15:33:17.075Z,100158.84
2023-03-05T15:35:45.012Z,100156.53
2023-03-05T15:38:12.522Z,100140.25
2023-03-05T15:40:39.826Z,100151.03
2023-03-05T15:43:07.143Z,100158.69
2023-03-05T15:45:34.417Z,100157.56
2023-03-05T15:48:01.927Z,100153.00
2023-03-05T15:50:29.262Z,100158.88
2023-03-05T15:52:57.943Z,100156.84
2023-03-05T15:55:25.399Z,100154.13
2023-03-05T15:57:53.928Z,100151.69
2023-03-05T16:00:29.285Z,100147.81
2023-03-05T16:02:56.631Z,100148.06
2023-03-05T16:05:24.208Z,100139.13
2023-03-05T16:07:53.313Z,100141.94
2023-03-05T16:10:25.261Z,100134.03
2023-03-05T16:12:55.121Z,100142.81
2023-03-05T16:15:22.795Z,100131.44
2023-03-05T16:17:54.776Z,100122.59
2023-03-05T16:20:22.668Z,100133.56
2023-03-05T16:22:50.945Z,100128.56
2023-03-05T16:25:18.334Z,100131.97
2023-03-05T16:27:45.779Z,100128.22
2023-03-05T16:30:15.365Z,100130.09
2023-03-05T16:32:43.538Z,100122.13
2023-03-05T16:35:12.453Z,100118.28
2023-03-05T16:37:44.040Z,100128.25
2023-03-05T16:40:12.418Z,100118.16
2023-03-05T16:42:39.894Z,100117.78
2023-03-05T16:45:08.814Z,100121.78
2023-03-05T16:47:36.184Z,100120.06
2023-03-05T16:50:04.077Z,100110.50
2023-03-05T16:52:31.765Z,100108.66
2023-03-05T16:54:59.207Z,100113.78
2023-03-05T16:57:28.882Z,100112.94
2023-03-05T16:59:57.156Z,100115.50
2023-03-05T17:02:24.524Z,100113.84
2023-03-05T17:04:51.845Z,100122.75
2023-03-05T17:07:19.300Z,100123.63
2023-03-05T17:09:48.020Z,100121.84
2023-03-05T17:12:15.406Z,100120.97
2023-03-05T17:14:42.889Z,100133.75
2023-03-05T17:17:10.758Z,100129.25
2023-03-05T17:19:38.200Z,100132.53
2023-03-05T17:22:05.891Z,100137.97
2023-03-05T17:24:33.348Z,100136.19
2023-03-05T17:27:01.059Z,100136.97
2023-03-05T17:29:29.508Z,100146.63
2023-03-05T17:31:56.945Z,100148.28
2023-03-05T17:34:35.727Z,100149.88
2023-03-05T17:37:05.183Z,100153.59
2023-03-05T17:39:32.995Z,100156.44
2023-03-05T17:42:01.258Z,100163.38
2023-03-05T17:44:29.002Z,100165.22
2023-03-05T17:46:56.431Z,100168.28
2023-03-05T17:49:23.790Z,100167.19
2023-03-05T17:51:51.175Z,100165.94
2023-03-05T17:54:18.838Z,100176.75
2023-03-05T17:56:48.060Z,100170.50
2023-03-05T17:59:16.541Z,100170.75
2023-03-05T18:01:43.949Z,100175.28
2023-03-05T18:04:11.467Z,100168.94
2023-03-05T18:06:40.099Z,100176.19
2023-03-05T18:09:07.786Z,100177.47
2023-03-05T18:11:39.290Z,100179.84
2023-03-05T18:14:10.909Z,100179.28
2023-03-05T18:16:39.246Z,100177.03
2023-03-05T18:19:08.096Z,100174.84
2023-03-05T18:21:35.420Z,100181.53
2023-03-05T18:24:03.748Z,100186.91
2023-03-05T18:26:31.336Z,100185.75
2023-03-05T18:28:58.737Z,100193.59
2023-03-05T18:31:27.302Z,100190.06
2023-03-05T18:33:54.704Z,100188.25
2023-03-05T18:36:22.251Z,100191.66
2023-03-05T18:38:49.524Z,100191.19
2023-03-05T18:41:21.071Z,100196.06
2023-03-05T18:43:48.712Z,100193.00
2023-03-05T18:46:16.991Z,100190.06
2023-03-05T18:48:44.333Z,100192.66
2023-03-05T18:51:19.153Z,100192.78
2023-03-05T18:53:46.500Z,100198.47
2023-03-05T18:56:14.163Z,100200.84
2023-03-05T18:58:41.531Z,100187.22
2023-03-05T19:01:11.820Z,100189.63
2023-03-05T19:03:39.289Z,100197.66
2023-03-05T19:06:07.715Z,100193.69
2023-03-05T19:08:35.846Z,100194.81
2023-03-05T19:11:03.517Z,100185.84
2023-03-05T19:13:40.399Z,100196.06
2023-03-05T19:16:17.755Z,100189.59
2023-03-05T19:19:20.388Z,100199.78
2023-03-05T19:21:59.718Z,100199.25
2023-03-05T19:24:30.671Z,100199.59
2023-03-05T19:27:01.069Z,100194.91
2023-03-05T19:29:33.075Z,100200.59
2023-03-05T19:32:00.494Z,100196.75
2023-03-05T19:34:27.733Z,100197.19
2023-03-05T19:36:55.059Z,100191.06
2023-03-05T19:39:22.368Z,100192.41
2023-03-05T19:41:49.693Z,100197.88
2023-03-05T19:44:19.328Z,100197.53
2023-03-05T19:46:48.530Z,100202.78
2023-03-05T19:49:18.242Z,100212.53
2023-03-05T19:51:46.362Z,100223.31
2023-03-05T19:54:17.871Z,100221.94
2023-03-05T19:56:46.447Z,100222.13
2023-03-05T19:59:17.570Z,100222.31
2023-03-05T20:01:45.895Z,100225.84
2023-03-05T20:04:15.899Z,100233.09
2023-03-05T20:06:43.391Z,100234.09
2023-03-05T20:09:11.117Z,100230.97
2023-03-05T20:11:39.043Z,100229.81
2023-03-05T20:14:07.083Z,100230.66
2023-03-05T20:16:36.381Z,100229.66
2023-03-05T20:19:06.580Z,100225.44
2023-03-05T20:21:40.160Z,100234.94
2023-03-05T20:24:11.298Z,100237.28
2023-03-05T20:26:40.517Z,100232.47
2023-03-05T20:29:08.589Z,100232.56
2023-03-05T20:31:37.173Z,100229.75
2023-03-05T20:34:06.568Z,100227.53
2023-03-05T20:36:34.816Z,100226.66
2023-03-05T20:39:03.325Z,100226.72
2023-03-05T20:41:32.025Z,100230.00
2023-03-05T20:43:59.437Z,100222.69
2023-03-05T20:46:30.068Z,100229.84
2023-03-05T20:49:02.531Z,100240.19
2023-03-05T20:51:36.010Z,100236.75
2023-03-05T20:54:07.223Z,100246.31
2023-03-05T20:56:35.614Z,100241.72
2023-03-05T20:59:07.529Z,100235.84
2023-03-05T21:01:37.394Z,100233.47
2023-03-05T21:04:04.938Z,100228.72
2023-03-05T21:06:33.057Z,100232.50
2023-03-05T21:09:00.848Z,100223.84
2023-03-05T21:11:28.589Z,100222.50
2023-03-05T21:14:14.189Z,100219.59
2023-03-05T21:16:41.554Z,100214.88
2023-03-05T21:19:08.970Z,100222.22
2023-03-05T21:21:36.312Z,100216.16
2023-03-05T21:24:03.750Z,100226.00
2023-03-05T21:26:31.106Z,100224.59
2023-03-05T21:28:58.375Z,100224.56
2023-03-05T21:31:25.818Z,100222.03
2023-03-05T21:33:54.226Z,100228.00
2023-03-05T21:36:21.808Z,100218.41
2023-03-05T21:38:49.566Z,100210.97
2023-03-05T21:41:18.257Z,100209.97
2023-03-05T21:43:45.692Z,100207.13
2023-03-05T21:46:13.131Z,100209.63
2023-03-05T21:48:40.589Z,100201.13
2023-03-05T21:51:40.700Z,100203.06
2023-03-05T21:54:19.831Z,100204.84
2023-03-05T21:56:47.456Z,100203.00
2023-03-05T21:59:14.794Z,100194.44
2023-03-05T22:01:44.811Z,100197.34
2023-03-05T22:04:12.230Z,100193.53
2023-03-05T22:06:39.572Z,100198.88
2023-03-05T22:09:06.849Z,100190.41
2023-03-05T22:11:34.189Z,100196.22
2023-03-05T22:14:01.540Z,100193.28
2023-03-05T22:16:29.321Z,100187.16
2023-03-05T22:18:56.721Z,100185.16
2023-03-05T22:21:28.734Z,100191.53
2023-03-05T22:23:59.554Z,100193.53
2023-03-05T22:26:35.422Z,100188.91
2023-03-05T22:29:02.770Z,100183.72
2023-03-05T22:31:30.540Z,100181.00
2023-03-05T22:33:58.068Z,100178.13
2023-03-05T22:36:25.561Z,100169.63
2023-03-05T22:38:53.001Z,100165.41
2023-03-05T22:41:21.424Z,100160.91
2023-03-05T22:43:49.750Z,100164.75
2023-03-05T22:46:26.149Z,100159.91
2023-03-05T22:48:53.971Z,100158.59
2023-03-05T22:51:21.484Z,100164.81
2023-03-05T22:53:48.775Z,100167.31
2023-03-05T22:56:19.459Z,100163.97
2023-03-05T22:58:46.872Z,100170.72
2023-03-05T23:01:22.489Z,100163.09
2023-03-05T23:04:38.929Z,100166.63
2023-03-05T23:07:09.577Z,100166.03
2023-03-05T23:09:36.932Z,100168.25
2023-03-05T23:12:04.607Z,100160.56
2023-03-05T23:14:32.046Z,100162.97
2023-03-05T23:16:59.553Z,100161.75
2023-03-05T23:19:29.247Z,100159.56
2023-03-05T23:21:56.632Z,100158.31
2023-03-05T23:24:23.861Z,100155.09
2023-03-05T23:26:51.174Z,100165.16
2023-03-05T23:29:24.969Z,100167.44
2023-03-05T23:32:04.432Z,100154.03
2023-03-05T23:34:34.596Z,100149.22
2023-03-05T23:37:02.121Z,100150.19
2023-03-05T23:39:29.472Z,100154.19
2023-03-05T23:41:56.789Z,100154.38
2023-03-05T23:44:24.042Z,100160.09
2023-03-05T23:46:51.396Z,100161.06
2023-03-05T23:49:18.703Z,100155.78
2023-03-05T23:51:46.057Z,100163.75
2023-03-05T23:54:13.309Z,100154.38
2023-03-05T23:56:43.460Z,100161.09
2023-03-05T23:59:10.823Z,100163.34
